Time Latitude Longitude Accuracy (66% radius in meters) Altitude (meters) Speed (km/hour) Bearing (degrees) Battery (%) GPS flag
06:54:55 57.205190 60.117408 0 0 0 0 1 delete
06:54:54 57.205193 60.117368 0 0 0 0 1 delete
06:54:53 57.205197 60.117323 0 0 0 0 1 delete
06:54:52 57.205196 60.117275 0 0 0 0 1 delete
06:54:51 57.205196 60.117226 0 0 0 0 1 delete
06:54:50 57.205196 60.117183 0 0 0 0 1 delete
06:54:49 57.205199 60.117147 0 0 0 0 1 delete
06:54:48 57.205200 60.117111 0 0 0 0 1 delete
06:54:47 57.205199 60.117071 0 0 0 0 1 delete
06:54:46 57.205198 60.117031 0 0 0 0 1 delete
06:54:45 57.205198 60.116988 0 0 0 0 1 delete
06:54:44 57.205196 60.116947 0 0 0 0 1 delete
06:54:43 57.205194 60.116904 0 0 0 0 1 delete
06:54:42 57.205193 60.116866 0 0 0 0 1 delete
06:54:41 57.205190 60.116829 0 0 0 0 1 delete
06:54:40 57.205186 60.116791 0 0 0 0 1 delete
06:54:39 57.205182 60.116748 0 0 0 0 1 delete
06:54:38 57.205181 60.116700 0 0 0 0 1 delete
06:54:37 57.205182 60.116650 0 0 0 0 1 delete
06:54:36 57.205182 60.116606 0 0 0 0 1 delete
06:54:35 57.205183 60.116565 0 0 0 0 1 delete
06:54:34 57.205183 60.116525 0 0 0 0 1 delete
06:54:33 57.205182 60.116481 0 0 0 0 1 delete
06:54:32 57.205179 60.116436 0 0 0 0 1 delete
06:54:31 57.205175 60.116392 0 0 0 0 1 delete
06:54:30 57.205171 60.116348 0 0 0 0 1 delete
06:54:29 57.205170 60.116305 0 0 0 0 1 delete
06:54:28 57.205169 60.116263 0 0 0 0 1 delete
06:54:27 57.205168 60.116223 0 0 0 0 1 delete
06:54:26 57.205167 60.116181 0 0 0 0 1 delete
06:54:25 57.205168 60.116135 0 0 0 0 1 delete
06:54:24 57.205172 60.116084 0 0 0 0 1 delete
06:54:23 57.205178 60.116034 0 0 0 0 1 delete
06:54:22 57.205186 60.115988 0 0 0 0 1 delete
06:54:21 57.205196 60.115943 0 0 0 0 1 delete
06:54:20 57.205207 60.115902 0 0 0 0 1 delete
06:54:19 57.205218 60.115863 0 0 0 0 1 delete
06:54:18 57.205230 60.115821 0 0 0 0 1 delete
06:54:17 57.205243 60.115780 0 0 0 0 1 delete
06:54:16 57.205257 60.115737 0 0 0 0 1 delete
06:54:15 57.205269 60.115703 0 0 0 0 1 delete
06:54:14 57.205280 60.115670 0 0 0 0 1 delete
06:54:13 57.205285 60.115640 0 0 0 0 1 delete
06:54:12 57.205284 60.115612 0 0 0 0 1 delete
06:54:11 57.205279 60.115591 0 0 0 0 1 delete
06:54:10 57.205270 60.115571 0 0 0 0 1 delete
06:54:09 57.205264 60.115548 0 0 0 0 1 delete
06:54:08 57.205261 60.115514 0 0 0 0 1 delete
06:54:07 57.205259 60.115472 0 0 0 0 1 delete
06:54:06 57.205256 60.115430 0 0 0 0 1 delete